Terminal Aerodrome Forecast
Issued by NWS

Home | Current Version | Previous Version | Text Only | Print | Product List | Glossary On
Versions: 1 2 3 4 5 6 7 8 9 10 11 12 13 14 15 16 17 18 19 20
421
FTUS41 KPHI 280521
TAFMIV
TAF
KMIV 280521Z 2806/0106 VRB03KT P6SM BKN100
      TEMPO 2809/2812 5SM BR
     FM281700 18006KT P6SM BKN250
     FM282100 18008KT P6SM BKN100
     FM010200 16005KT 3SM -SHRA BR OVC015
     FM010400 17006KT 1 1/2SM -SHRA BR BKN008 WS020/21040KT=

USA.gov is the U.S. government's official web portal to all federal, state and local government web resources and services.